BAW023A EHRD-EGLL
Flight info
| Callsign | BAW023A |
|---|---|
| Flight time | N/A |
| Altitude | 24000 |
| Route | ABNED L980 LOGAN |
| Aircraft | A20N/M-SDE2E3FGHIRWXY/LB1 |
Departure
| Time | 2026-04-27 09:58 |
|---|---|
| Airport | Rotterdam The Hague Airport (EHRD) |
Arrival
| Time | N/A |
|---|---|
| Airport | London Heathrow Airport (EGLL) |
| Time | Latitude | Longitude | Altitude | Speed | Heading |
|---|---|---|---|---|---|
| 2026-04-27 09:46 | 51.95112 | 4.43489 | -6 ft | 0 kts | 327° |
| 2026-04-27 09:55 | 51.95117 | 4.43484 | -6 ft | 3 kts | 327° |
| 2026-04-27 09:55 | 51.95215 | 4.43467 | -7 ft | 14 kts | 327° |
| 2026-04-27 09:56 | 51.95242 | 4.43387 | -7 ft | 4 kts | 229° |
| 2026-04-27 09:56 | 51.95209 | 4.43313 | -7 ft | 13 kts | 237° |
| 2026-04-27 09:56 | 51.95145 | 4.43141 | -6 ft | 22 kts | 248° |
| 2026-04-27 09:56 | 51.95114 | 4.43027 | -5 ft | 2 kts | 248° |
| 2026-04-27 09:57 | 51.95113 | 4.42978 | -5 ft | 7 kts | 271° |
| 2026-04-27 09:57 | 51.95146 | 4.42915 | -4 ft | 9 kts | 327° |
| 2026-04-27 09:57 | 51.95207 | 4.42862 | -3 ft | 8 kts | 353° |
| 2026-04-27 09:57 | 51.95245 | 4.42921 | -3 ft | 9 kts | 54° |
| 2026-04-27 09:58 | 51.95250 | 4.42931 | -4 ft | 0 kts | 54° |
| 2026-04-27 09:58 | 51.95321 | 4.43092 | -4 ft | 61 kts | 54° |
| 2026-04-27 09:58 | 51.95729 | 4.44097 | -2 ft | 146 kts | 55° |
| 2026-04-27 09:58 | 51.96306 | 4.45477 | 812 ft | 149 kts | 57° |
| 2026-04-27 09:59 | 51.96867 | 4.46979 | 1713 ft | 162 kts | 60° |
| 2026-04-27 09:59 | 51.97486 | 4.48770 | 2150 ft | 213 kts | 60° |
| 2026-04-27 09:59 | 51.98333 | 4.51074 | 2515 ft | 265 kts | 51° |
| 2026-04-27 09:59 | 51.99867 | 4.53132 | 2692 ft | 316 kts | 27° |
| 2026-04-27 10:00 | 52.02139 | 4.54214 | 2720 ft | 362 kts | 5° |
| 2026-04-27 10:00 | 52.04759 | 4.53938 | 2854 ft | 384 kts | 349° |
| 2026-04-27 10:00 | 52.07098 | 4.53184 | 4636 ft | 300 kts | 344° |
| 2026-04-27 10:00 | 52.08790 | 4.51857 | 5631 ft | 251 kts | 320° |
| 2026-04-27 10:01 | 52.09862 | 4.49676 | 5632 ft | 247 kts | 294° |
| 2026-04-27 10:01 | 52.10153 | 4.46953 | 5258 ft | 247 kts | 263° |
| 2026-04-27 10:01 | 52.09555 | 4.44361 | 4884 ft | 248 kts | 233° |
| 2026-04-27 10:01 | 52.08226 | 4.42667 | 4708 ft | 245 kts | 200° |
| 2026-04-27 10:02 | 52.06554 | 4.42350 | 5208 ft | 242 kts | 176° |
| 2026-04-27 10:02 | 52.04848 | 4.42565 | 6087 ft | 253 kts | 182° |
| 2026-04-27 10:02 | 52.03097 | 4.41783 | 6819 ft | 271 kts | 210° |
| 2026-04-27 10:02 | 52.01721 | 4.39696 | 7821 ft | 275 kts | 237° |
| 2026-04-27 10:03 | 52.00905 | 4.36880 | 8879 ft | 279 kts | 251° |
| 2026-04-27 10:03 | 52.00306 | 4.33855 | 9920 ft | 284 kts | 252° |
| 2026-04-27 10:03 | 51.99691 | 4.30786 | 10700 ft | 300 kts | 251° |
| 2026-04-27 10:03 | 51.98942 | 4.27474 | 11162 ft | 324 kts | 249° |
| 2026-04-27 10:04 | 51.98072 | 4.23988 | 11760 ft | 339 kts | 247° |
| 2026-04-27 10:04 | 51.97145 | 4.20446 | 12691 ft | 344 kts | 247° |
| 2026-04-27 10:04 | 51.96191 | 4.16865 | 13593 ft | 348 kts | 246° |
| 2026-04-27 10:04 | 51.95220 | 4.13234 | 14466 ft | 353 kts | 246° |
| 2026-04-27 10:05 | 51.94311 | 4.09503 | 15326 ft | 358 kts | 252° |
| 2026-04-27 10:05 | 51.93721 | 4.05568 | 16141 ft | 362 kts | 261° |
| 2026-04-27 10:05 | 51.93343 | 4.01506 | 16933 ft | 367 kts | 261° |
| 2026-04-27 10:05 | 51.92956 | 3.97397 | 17710 ft | 371 kts | 261° |
| 2026-04-27 10:06 | 51.92558 | 3.93238 | 18470 ft | 375 kts | 261° |
| 2026-04-27 10:06 | 51.92156 | 3.89087 | 19179 ft | 380 kts | 261° |
| 2026-04-27 10:06 | 51.91736 | 3.84784 | 19902 ft | 384 kts | 261° |
| 2026-04-27 10:06 | 51.91314 | 3.80492 | 20591 ft | 388 kts | 261° |
| 2026-04-27 10:07 | 51.90892 | 3.76208 | 21254 ft | 392 kts | 261° |
| 2026-04-27 10:07 | 51.90458 | 3.71811 | 21911 ft | 396 kts | 261° |
| 2026-04-27 10:07 | 51.90019 | 3.67386 | 22548 ft | 400 kts | 261° |
| 2026-04-27 10:07 | 51.89574 | 3.62918 | 23168 ft | 404 kts | 261° |
| 2026-04-27 10:08 | 51.89122 | 3.58404 | 23712 ft | 408 kts | 261° |
| 2026-04-27 10:08 | 51.88666 | 3.53862 | 23929 ft | 410 kts | 261° |
| 2026-04-27 10:08 | 51.88206 | 3.49297 | 23997 ft | 410 kts | 261° |
| 2026-04-27 10:08 | 51.87745 | 3.44742 | 24000 ft | 410 kts | 261° |
| 2026-04-27 10:09 | 51.87282 | 3.40186 | 24000 ft | 410 kts | 261° |
| 2026-04-27 10:09 | 51.86818 | 3.35635 | 24000 ft | 410 kts | 261° |
| 2026-04-27 10:09 | 51.86351 | 3.31081 | 24000 ft | 410 kts | 261° |
| 2026-04-27 10:09 | 51.85884 | 3.26538 | 24000 ft | 410 kts | 261° |
| 2026-04-27 10:10 | 51.85418 | 3.22029 | 24000 ft | 410 kts | 261° |
| 2026-04-27 10:10 | 51.84941 | 3.17426 | 24000 ft | 410 kts | 261° |
| 2026-04-27 10:10 | 51.84534 | 3.12866 | 24000 ft | 410 kts | 263° |
| 2026-04-27 10:10 | 51.84251 | 3.08339 | 24000 ft | 410 kts | 265° |
| 2026-04-27 10:11 | 51.83994 | 3.03760 | 24000 ft | 410 kts | 265° |
| 2026-04-27 10:11 | 51.83726 | 2.99155 | 24000 ft | 410 kts | 264° |
| 2026-04-27 10:11 | 51.83444 | 2.94576 | 24000 ft | 410 kts | 264° |
| 2026-04-27 10:11 | 51.83151 | 2.90012 | 24000 ft | 410 kts | 264° |
| 2026-04-27 10:12 | 51.82844 | 2.85347 | 24000 ft | 410 kts | 264° |
| 2026-04-27 10:12 | 51.82537 | 2.80750 | 24000 ft | 410 kts | 264° |
| 2026-04-27 10:12 | 51.82229 | 2.76172 | 24000 ft | 410 kts | 264° |
| 2026-04-27 10:12 | 51.81918 | 2.71586 | 24000 ft | 410 kts | 264° |
| 2026-04-27 10:13 | 51.81607 | 2.67012 | 24000 ft | 410 kts | 264° |
| 2026-04-27 10:13 | 51.81293 | 2.62420 | 24000 ft | 410 kts | 264° |
| 2026-04-27 10:13 | 51.80978 | 2.57850 | 24000 ft | 410 kts | 263° |
| 2026-04-27 10:13 | 51.80661 | 2.53263 | 24000 ft | 410 kts | 263° |
| 2026-04-27 10:14 | 51.80346 | 2.48747 | 24000 ft | 410 kts | 263° |
| 2026-04-27 10:14 | 51.80025 | 2.44164 | 24000 ft | 410 kts | 263° |
| 2026-04-27 10:14 | 51.79703 | 2.39584 | 24000 ft | 410 kts | 263° |
| 2026-04-27 10:14 | 51.79379 | 2.35008 | 24000 ft | 410 kts | 263° |
| 2026-04-27 10:15 | 51.79052 | 2.30424 | 24000 ft | 410 kts | 263° |
| 2026-04-27 10:16 | 51.77825 | 2.11747 | 24000 ft | 410 kts | 265° |
| 2026-04-27 10:16 | 51.77570 | 2.07228 | 24000 ft | 410 kts | 265° |
| 2026-04-27 10:16 | 51.77308 | 2.02661 | 24000 ft | 410 kts | 264° |
| 2026-04-27 10:16 | 51.77038 | 1.98080 | 24000 ft | 410 kts | 264° |
| 2026-04-27 10:17 | 51.76767 | 1.93495 | 24000 ft | 410 kts | 265° |
| 2026-04-27 10:17 | 51.76505 | 1.88905 | 24000 ft | 410 kts | 265° |
| 2026-04-27 10:17 | 51.76238 | 1.84318 | 24000 ft | 410 kts | 265° |
| 2026-04-27 10:17 | 51.75963 | 1.79746 | 24000 ft | 410 kts | 265° |
| 2026-04-27 10:18 | 51.75680 | 1.75166 | 24000 ft | 410 kts | 264° |
| 2026-04-27 10:18 | 51.75490 | 1.72135 | 24000 ft | 410 kts | 264° |
| 2026-04-27 10:18 | 51.75200 | 1.67547 | 24000 ft | 410 kts | 264° |
| 2026-04-27 10:18 | 51.74909 | 1.62978 | 24000 ft | 410 kts | 264° |
| 2026-04-27 10:19 | 51.74616 | 1.58398 | 24000 ft | 410 kts | 264° |
| 2026-04-27 10:19 | 51.74322 | 1.53825 | 23884 ft | 407 kts | 264° |
| 2026-04-27 10:19 | 51.74029 | 1.49289 | 23471 ft | 405 kts | 264° |
| 2026-04-27 10:19 | 51.73737 | 1.44782 | 22922 ft | 402 kts | 264° |
| 2026-04-27 10:20 | 51.73448 | 1.40360 | 22326 ft | 399 kts | 264° |
| 2026-04-27 10:20 | 51.73158 | 1.35931 | 21723 ft | 395 kts | 264° |
| 2026-04-27 10:20 | 51.72868 | 1.31538 | 21123 ft | 391 kts | 264° |
| 2026-04-27 10:20 | 51.72579 | 1.27186 | 20525 ft | 388 kts | 264° |
| 2026-04-27 10:21 | 51.72292 | 1.22877 | 19930 ft | 384 kts | 264° |
| 2026-04-27 10:21 | 51.72005 | 1.18598 | 19336 ft | 381 kts | 264° |
| 2026-04-27 10:21 | 51.71720 | 1.14370 | 18746 ft | 378 kts | 264° |
| 2026-04-27 10:21 | 51.71436 | 1.10183 | 18159 ft | 374 kts | 264° |
| 2026-04-27 10:22 | 51.71153 | 1.06027 | 17578 ft | 371 kts | 264° |
| 2026-04-27 10:22 | 51.70876 | 1.01965 | 17008 ft | 368 kts | 264° |
| 2026-04-27 10:22 | 51.70594 | 0.97877 | 16435 ft | 365 kts | 264° |
| 2026-04-27 10:22 | 51.70351 | 0.94350 | 15940 ft | 362 kts | 264° |
| 2026-04-27 10:23 | 51.70073 | 0.90345 | 15383 ft | 359 kts | 264° |
| 2026-04-27 10:23 | 51.69795 | 0.86355 | 14821 ft | 356 kts | 263° |
| 2026-04-27 10:23 | 51.69517 | 0.82390 | 14273 ft | 353 kts | 263° |
| 2026-04-27 10:23 | 51.69242 | 0.78478 | 13841 ft | 347 kts | 263° |
| 2026-04-27 10:24 | 51.68974 | 0.74695 | 13693 ft | 333 kts | 263° |
| 2026-04-27 10:24 | 51.68716 | 0.71063 | 13563 ft | 319 kts | 263° |
| 2026-04-27 10:24 | 51.68468 | 0.67586 | 13443 ft | 306 kts | 263° |
| 2026-04-27 10:24 | 51.68229 | 0.64250 | 13338 ft | 294 kts | 263° |
| 2026-04-27 10:25 | 51.67999 | 0.61046 | 13237 ft | 282 kts | 263° |
| 2026-04-27 10:25 | 51.67777 | 0.57983 | 13141 ft | 270 kts | 263° |
| 2026-04-27 10:25 | 51.67562 | 0.55017 | 12917 ft | 264 kts | 263° |
| 2026-04-27 10:25 | 51.67349 | 0.52090 | 12580 ft | 263 kts | 263° |